sensor_id;sensor_type;location;lat;lon;timestamp;P1;durP1;ratioP1;P2;durP2;ratioP2
51664;SDS011;37751;52.408;12.536;2023-04-10T00:00:42;65.50;;;37.00;;
51664;SDS011;37751;52.408;12.536;2023-04-10T00:03:11;57.23;;;34.60;;
51664;SDS011;37751;52.408;12.536;2023-04-10T00:05:40;57.63;;;34.83;;
51664;SDS011;37751;52.408;12.536;2023-04-10T00:08:07;61.47;;;33.50;;
51664;SDS011;37751;52.408;12.536;2023-04-10T00:10:35;60.77;;;33.70;;
51664;SDS011;37751;52.408;12.536;2023-04-10T00:13:03;59.90;;;35.57;;
51664;SDS011;37751;52.408;12.536;2023-04-10T00:15:30;58.80;;;34.47;;
51664;SDS011;37751;52.408;12.536;2023-04-10T00:17:58;61.70;;;35.37;;
51664;SDS011;37751;52.408;12.536;2023-04-10T00:20:26;61.03;;;36.10;;
51664;SDS011;37751;52.408;12.536;2023-04-10T00:22:53;55.67;;;34.03;;
51664;SDS011;37751;52.408;12.536;2023-04-10T00:25:21;62.87;;;34.80;;
51664;SDS011;37751;52.408;12.536;2023-04-10T00:27:49;59.00;;;34.03;;
51664;SDS011;37751;52.408;12.536;2023-04-10T00:30:17;65.90;;;37.33;;
51664;SDS011;37751;52.408;12.536;2023-04-10T00:32:46;67.63;;;36.87;;
51664;SDS011;37751;52.408;12.536;2023-04-10T00:35:14;65.37;;;38.23;;
51664;SDS011;37751;52.408;12.536;2023-04-10T00:37:41;62.80;;;37.30;;
51664;SDS011;37751;52.408;12.536;2023-04-10T00:40:09;65.87;;;38.93;;
51664;SDS011;37751;52.408;12.536;2023-04-10T00:42:37;67.23;;;39.73;;
51664;SDS011;37751;52.408;12.536;2023-04-10T00:45:06;71.63;;;40.30;;
51664;SDS011;37751;52.408;12.536;2023-04-10T00:47:35;65.67;;;39.13;;
51664;SDS011;37751;52.408;12.536;2023-04-10T00:50:04;64.27;;;39.03;;
51664;SDS011;37751;52.408;12.536;2023-04-10T00:52:32;68.70;;;40.17;;
51664;SDS011;37751;52.408;12.536;2023-04-10T00:55:01;70.30;;;39.83;;
51664;SDS011;37751;52.408;12.536;2023-04-10T00:57:29;68.37;;;38.47;;
51664;SDS011;37751;52.408;12.536;2023-04-10T00:59:57;69.80;;;38.20;;
51664;SDS011;37751;52.408;12.536;2023-04-10T01:02:24;64.00;;;37.70;;
51664;SDS011;37751;52.408;12.536;2023-04-10T01:04:52;67.77;;;38.77;;
51664;SDS011;37751;52.408;12.536;2023-04-10T01:07:37;69.60;;;39.27;;
51664;SDS011;37751;52.408;12.536;2023-04-10T01:10:48;70.57;;;39.13;;
51664;SDS011;37751;52.408;12.536;2023-04-10T01:14:04;70.33;;;39.30;;
51664;SDS011;37751;52.408;12.536;2023-04-10T01:17:19;69.23;;;38.43;;
51664;SDS011;37751;52.408;12.536;2023-04-10T01:20:03;66.07;;;37.23;;
51664;SDS011;37751;52.408;12.536;2023-04-10T01:25:18;68.70;;;38.43;;
51664;SDS011;37751;52.408;12.536;2023-04-10T01:31:10;69.40;;;36.20;;
51664;SDS011;37751;52.408;12.536;2023-04-10T01:33:45;67.40;;;37.43;;
51664;SDS011;37751;52.408;12.536;2023-04-10T01:36:20;64.03;;;36.87;;
51664;SDS011;37751;52.408;12.536;2023-04-10T01:38:54;66.43;;;37.47;;
51664;SDS011;37751;52.408;12.536;2023-04-10T01:41:24;68.13;;;37.13;;
51664;SDS011;37751;52.408;12.536;2023-04-10T01:43:55;64.80;;;37.70;;
51664;SDS011;37751;52.408;12.536;2023-04-10T01:46:26;67.43;;;35.60;;
51664;SDS011;37751;52.408;12.536;2023-04-10T01:48:56;63.97;;;35.87;;
51664;SDS011;37751;52.408;12.536;2023-04-10T01:51:29;65.17;;;36.67;;
51664;SDS011;37751;52.408;12.536;2023-04-10T01:54:00;56.03;;;35.33;;
51664;SDS011;37751;52.408;12.536;2023-04-10T01:56:32;63.93;;;35.03;;
51664;SDS011;37751;52.408;12.536;2023-04-10T01:59:01;67.40;;;36.23;;
51664;SDS011;37751;52.408;12.536;2023-04-10T02:01:29;62.87;;;35.87;;
51664;SDS011;37751;52.408;12.536;2023-04-10T02:03:59;62.17;;;35.33;;
51664;SDS011;37751;52.408;12.536;2023-04-10T02:09:27;53.87;;;34.33;;
51664;SDS011;37751;52.408;12.536;2023-04-10T02:12:09;67.13;;;35.20;;
51664;SDS011;37751;52.408;12.536;2023-04-10T02:14:48;62.97;;;35.03;;
51664;SDS011;37751;52.408;12.536;2023-04-10T02:17:22;63.40;;;35.60;;
51664;SDS011;37751;52.408;12.536;2023-04-10T02:19:55;59.53;;;35.13;;
51664;SDS011;37751;52.408;12.536;2023-04-10T02:22:24;59.63;;;33.00;;
51664;SDS011;37751;52.408;12.536;2023-04-10T02:24:53;59.20;;;33.53;;
51664;SDS011;37751;52.408;12.536;2023-04-10T02:27:28;60.03;;;33.57;;
51664;SDS011;37751;52.408;12.536;2023-04-10T02:30:01;59.47;;;33.60;;
51664;SDS011;37751;52.408;12.536;2023-04-10T02:32:32;57.40;;;32.87;;
51664;SDS011;37751;52.408;12.536;2023-04-10T02:35:01;58.87;;;33.63;;
51664;SDS011;37751;52.408;12.536;2023-04-10T02:37:30;55.33;;;32.77;;
51664;SDS011;37751;52.408;12.536;2023-04-10T02:40:00;62.73;;;34.13;;
51664;SDS011;37751;52.408;12.536;2023-04-10T02:42:36;56.33;;;34.30;;
51664;SDS011;37751;52.408;12.536;2023-04-10T02:45:04;61.63;;;33.17;;
51664;SDS011;37751;52.408;12.536;2023-04-10T02:47:37;61.57;;;35.13;;
51664;SDS011;37751;52.408;12.536;2023-04-10T02:50:05;55.23;;;32.17;;
51664;SDS011;37751;52.408;12.536;2023-04-10T02:52:36;58.07;;;34.27;;
51664;SDS011;37751;52.408;12.536;2023-04-10T02:55:04;56.73;;;32.07;;
51664;SDS011;37751;52.408;12.536;2023-04-10T02:57:35;58.80;;;33.40;;
51664;SDS011;37751;52.408;12.536;2023-04-10T03:00:03;59.97;;;32.23;;
51664;SDS011;37751;52.408;12.536;2023-04-10T03:02:51;55.73;;;33.03;;
51664;SDS011;37751;52.408;12.536;2023-04-10T03:05:20;56.40;;;33.20;;
51664;SDS011;37751;52.408;12.536;2023-04-10T03:07:48;56.20;;;32.33;;
51664;SDS011;37751;52.408;12.536;2023-04-10T03:10:16;60.33;;;32.90;;
51664;SDS011;37751;52.408;12.536;2023-04-10T03:12:44;57.47;;;32.03;;
51664;SDS011;37751;52.408;12.536;2023-04-10T03:15:12;57.70;;;33.23;;
51664;SDS011;37751;52.408;12.536;2023-04-10T03:17:39;57.53;;;32.60;;
51664;SDS011;37751;52.408;12.536;2023-04-10T03:20:08;60.43;;;33.57;;
51664;SDS011;37751;52.408;12.536;2023-04-10T03:22:36;60.83;;;33.00;;
51664;SDS011;37751;52.408;12.536;2023-04-10T03:25:04;59.63;;;32.10;;
51664;SDS011;37751;52.408;12.536;2023-04-10T03:27:32;56.90;;;31.17;;
51664;SDS011;37751;52.408;12.536;2023-04-10T03:30:01;59.47;;;32.50;;
51664;SDS011;37751;52.408;12.536;2023-04-10T03:32:37;63.30;;;34.13;;
51664;SDS011;37751;52.408;12.536;2023-04-10T03:35:06;58.20;;;32.73;;
51664;SDS011;37751;52.408;12.536;2023-04-10T03:37:35;58.70;;;34.30;;
51664;SDS011;37751;52.408;12.536;2023-04-10T03:40:06;57.87;;;32.90;;
51664;SDS011;37751;52.408;12.536;2023-04-10T03:42:35;55.57;;;32.70;;
51664;SDS011;37751;52.408;12.536;2023-04-10T03:45:04;58.03;;;32.87;;
51664;SDS011;37751;52.408;12.536;2023-04-10T03:47:33;60.20;;;33.87;;
51664;SDS011;37751;52.408;12.536;2023-04-10T03:50:03;57.83;;;32.60;;
51664;SDS011;37751;52.408;12.536;2023-04-10T03:52:39;56.93;;;31.67;;
51664;SDS011;37751;52.408;12.536;2023-04-10T03:55:12;54.90;;;30.30;;
51664;SDS011;37751;52.408;12.536;2023-04-10T03:57:41;58.27;;;31.90;;
51664;SDS011;37751;52.408;12.536;2023-04-10T04:00:11;59.93;;;32.03;;
51664;SDS011;37751;52.408;12.536;2023-04-10T04:02:48;52.07;;;29.93;;
51664;SDS011;37751;52.408;12.536;2023-04-10T04:05:37;58.67;;;30.70;;
51664;SDS011;37751;52.408;12.536;2023-04-10T04:08:28;51.97;;;30.93;;
51664;SDS011;37751;52.408;12.536;2023-04-10T04:11:18;52.53;;;31.07;;
51664;SDS011;37751;52.408;12.536;2023-04-10T04:14:01;58.47;;;31.77;;
51664;SDS011;37751;52.408;12.536;2023-04-10T04:16:48;55.83;;;32.17;;
51664;SDS011;37751;52.408;12.536;2023-04-10T04:19:23;57.97;;;30.80;;
51664;SDS011;37751;52.408;12.536;2023-04-10T04:22:10;57.53;;;32.47;;
51664;SDS011;37751;52.408;12.536;2023-04-10T04:24:56;52.60;;;31.17;;
51664;SDS011;37751;52.408;12.536;2023-04-10T04:27:39;46.07;;;27.13;;
51664;SDS011;37751;52.408;12.536;2023-04-10T04:30:26;44.73;;;26.67;;
51664;SDS011;37751;52.408;12.536;2023-04-10T04:33:08;40.57;;;24.03;;
51664;SDS011;37751;52.408;12.536;2023-04-10T04:35:50;44.70;;;26.63;;
51664;SDS011;37751;52.408;12.536;2023-04-10T04:38:39;38.93;;;24.30;;
51664;SDS011;37751;52.408;12.536;2023-04-10T04:41:25;40.17;;;24.30;;
51664;SDS011;37751;52.408;12.536;2023-04-10T04:44:01;37.93;;;24.10;;
51664;SDS011;37751;52.408;12.536;2023-04-10T04:46:47;39.67;;;24.17;;
51664;SDS011;37751;52.408;12.536;2023-04-10T04:49:27;42.47;;;24.63;;
51664;SDS011;37751;52.408;12.536;2023-04-10T04:52:17;41.47;;;26.10;;
51664;SDS011;37751;52.408;12.536;2023-04-10T04:55:05;48.57;;;27.40;;
51664;SDS011;37751;52.408;12.536;2023-04-10T04:57:53;51.03;;;26.23;;
51664;SDS011;37751;52.408;12.536;2023-04-10T05:00:32;57.73;;;26.87;;
51664;SDS011;37751;52.408;12.536;2023-04-10T05:03:04;48.57;;;25.03;;
51664;SDS011;37751;52.408;12.536;2023-04-10T05:05:56;43.87;;;26.17;;
51664;SDS011;37751;52.408;12.536;2023-04-10T05:08:33;44.47;;;25.53;;
51664;SDS011;37751;52.408;12.536;2023-04-10T05:11:05;42.40;;;26.60;;
51664;SDS011;37751;52.408;12.536;2023-04-10T05:13:44;41.27;;;25.17;;
51664;SDS011;37751;52.408;12.536;2023-04-10T05:16:41;41.87;;;27.20;;
51664;SDS011;37751;52.408;12.536;2023-04-10T05:19:40;40.33;;;26.10;;
51664;SDS011;37751;52.408;12.536;2023-04-10T05:22:40;39.87;;;26.73;;
51664;SDS011;37751;52.408;12.536;2023-04-10T05:25:34;41.50;;;25.70;;
51664;SDS011;37751;52.408;12.536;2023-04-10T05:28:15;36.20;;;24.50;;
51664;SDS011;37751;52.408;12.536;2023-04-10T05:31:02;34.70;;;24.17;;
51664;SDS011;37751;52.408;12.536;2023-04-10T05:33:48;37.03;;;22.67;;
51664;SDS011;37751;52.408;12.536;2023-04-10T05:36:24;34.33;;;23.53;;
51664;SDS011;37751;52.408;12.536;2023-04-10T05:39:13;38.77;;;24.07;;
51664;SDS011;37751;52.408;12.536;2023-04-10T05:41:56;36.20;;;23.10;;
51664;SDS011;37751;52.408;12.536;2023-04-10T05:44:31;37.20;;;23.40;;
51664;SDS011;37751;52.408;12.536;2023-04-10T05:47:16;35.40;;;22.30;;
51664;SDS011;37751;52.408;12.536;2023-04-10T05:50:27;35.57;;;23.20;;
51664;SDS011;37751;52.408;12.536;2023-04-10T05:53:11;40.23;;;25.37;;
51664;SDS011;37751;52.408;12.536;2023-04-10T05:55:57;39.83;;;24.40;;
51664;SDS011;37751;52.408;12.536;2023-04-10T05:58:42;36.37;;;24.40;;
51664;SDS011;37751;52.408;12.536;2023-04-10T06:01:13;33.93;;;23.40;;
51664;SDS011;37751;52.408;12.536;2023-04-10T06:03:55;35.63;;;23.60;;
51664;SDS011;37751;52.408;12.536;2023-04-10T06:06:24;37.20;;;23.03;;
51664;SDS011;37751;52.408;12.536;2023-04-10T06:08:52;37.83;;;24.73;;
51664;SDS011;37751;52.408;12.536;2023-04-10T06:11:20;34.30;;;22.40;;
51664;SDS011;37751;52.408;12.536;2023-04-10T06:13:52;35.97;;;22.90;;
51664;SDS011;37751;52.408;12.536;2023-04-10T06:16:25;32.97;;;22.43;;
51664;SDS011;37751;52.408;12.536;2023-04-10T06:18:54;33.87;;;22.20;;
51664;SDS011;37751;52.408;12.536;2023-04-10T06:21:22;35.60;;;23.33;;
51664;SDS011;37751;52.408;12.536;2023-04-10T06:23:50;31.73;;;21.43;;
51664;SDS011;37751;52.408;12.536;2023-04-10T06:26:18;30.60;;;20.30;;
51664;SDS011;37751;52.408;12.536;2023-04-10T06:28:46;33.90;;;23.40;;
51664;SDS011;37751;52.408;12.536;2023-04-10T06:31:16;30.70;;;21.13;;
51664;SDS011;37751;52.408;12.536;2023-04-10T06:33:48;32.27;;;21.77;;
51664;SDS011;37751;52.408;12.536;2023-04-10T06:36:17;33.27;;;22.13;;
51664;SDS011;37751;52.408;12.536;2023-04-10T06:38:55;32.03;;;22.27;;
51664;SDS011;37751;52.408;12.536;2023-04-10T06:41:23;32.10;;;21.80;;
51664;SDS011;37751;52.408;12.536;2023-04-10T06:43:53;32.17;;;20.70;;
51664;SDS011;37751;52.408;12.536;2023-04-10T06:46:21;36.57;;;21.43;;
51664;SDS011;37751;52.408;12.536;2023-04-10T06:48:49;32.53;;;22.73;;
51664;SDS011;37751;52.408;12.536;2023-04-10T06:51:17;34.97;;;22.93;;
51664;SDS011;37751;52.408;12.536;2023-04-10T06:53:45;36.90;;;22.23;;
51664;SDS011;37751;52.408;12.536;2023-04-10T06:56:12;33.70;;;23.30;;
51664;SDS011;37751;52.408;12.536;2023-04-10T06:58:40;31.87;;;21.53;;
51664;SDS011;37751;52.408;12.536;2023-04-10T07:01:08;32.17;;;22.90;;
51664;SDS011;37751;52.408;12.536;2023-04-10T07:03:36;35.87;;;23.77;;
51664;SDS011;37751;52.408;12.536;2023-04-10T07:06:04;29.83;;;21.23;;
51664;SDS011;37751;52.408;12.536;2023-04-10T07:08:34;32.00;;;21.70;;
51664;SDS011;37751;52.408;12.536;2023-04-10T07:11:01;32.87;;;23.00;;
51664;SDS011;37751;52.408;12.536;2023-04-10T07:13:32;38.37;;;23.57;;
51664;SDS011;37751;52.408;12.536;2023-04-10T07:16:01;33.43;;;22.47;;
51664;SDS011;37751;52.408;12.536;2023-04-10T07:18:29;31.20;;;22.23;;
51664;SDS011;37751;52.408;12.536;2023-04-10T07:20:57;36.85;;;23.50;;
51664;SDS011;37751;52.408;12.536;2023-04-10T07:23:25;34.08;;;23.70;;
51664;SDS011;37751;52.408;12.536;2023-04-10T07:25:53;34.83;;;23.77;;
51664;SDS011;37751;52.408;12.536;2023-04-10T07:28:21;32.08;;;22.88;;
51664;SDS011;37751;52.408;12.536;2023-04-10T07:30:48;31.98;;;22.67;;
51664;SDS011;37751;52.408;12.536;2023-04-10T07:33:16;34.83;;;23.33;;
51664;SDS011;37751;52.408;12.536;2023-04-10T07:35:44;34.35;;;22.52;;
51664;SDS011;37751;52.408;12.536;2023-04-10T07:38:12;34.08;;;24.40;;
51664;SDS011;37751;52.408;12.536;2023-04-10T07:40:39;34.33;;;23.13;;
51664;SDS011;37751;52.408;12.536;2023-04-10T07:43:07;33.13;;;22.77;;
51664;SDS011;37751;52.408;12.536;2023-04-10T07:45:34;31.67;;;22.52;;
51664;SDS011;37751;52.408;12.536;2023-04-10T07:48:02;33.72;;;23.42;;
51664;SDS011;37751;52.408;12.536;2023-04-10T07:50:32;30.88;;;22.80;;
51664;SDS011;37751;52.408;12.536;2023-04-10T07:53:00;32.30;;;22.42;;
51664;SDS011;37751;52.408;12.536;2023-04-10T07:55:29;31.55;;;22.42;;
51664;SDS011;37751;52.408;12.536;2023-04-10T07:57:57;32.38;;;22.80;;
51664;SDS011;37751;52.408;12.536;2023-04-10T08:00:24;32.88;;;22.08;;
51664;SDS011;37751;52.408;12.536;2023-04-10T08:02:52;31.63;;;22.20;;
51664;SDS011;37751;52.408;12.536;2023-04-10T08:05:20;33.50;;;21.88;;
51664;SDS011;37751;52.408;12.536;2023-04-10T08:07:48;28.23;;;21.52;;
51664;SDS011;37751;52.408;12.536;2023-04-10T08:10:16;31.08;;;22.67;;
51664;SDS011;37751;52.408;12.536;2023-04-10T08:12:43;29.55;;;22.05;;
51664;SDS011;37751;52.408;12.536;2023-04-10T08:15:11;29.58;;;21.75;;
51664;SDS011;37751;52.408;12.536;2023-04-10T08:17:39;32.65;;;22.02;;
51664;SDS011;37751;52.408;12.536;2023-04-10T08:20:08;33.75;;;21.75;;
51664;SDS011;37751;52.408;12.536;2023-04-10T08:22:37;28.83;;;21.33;;
51664;SDS011;37751;52.408;12.536;2023-04-10T08:25:05;27.63;;;20.08;;
51664;SDS011;37751;52.408;12.536;2023-04-10T08:27:33;27.15;;;19.50;;
51664;SDS011;37751;52.408;12.536;2023-04-10T08:30:00;26.50;;;19.63;;
51664;SDS011;37751;52.408;12.536;2023-04-10T08:32:28;27.83;;;19.58;;
51664;SDS011;37751;52.408;12.536;2023-04-10T08:34:56;24.20;;;18.17;;
51664;SDS011;37751;52.408;12.536;2023-04-10T08:37:24;28.45;;;17.63;;
51664;SDS011;37751;52.408;12.536;2023-04-10T08:39:53;26.85;;;18.20;;
51664;SDS011;37751;52.408;12.536;2023-04-10T08:42:20;22.13;;;17.17;;
51664;SDS011;37751;52.408;12.536;2023-04-10T08:44:48;22.23;;;16.23;;
51664;SDS011;37751;52.408;12.536;2023-04-10T08:47:17;22.63;;;16.45;;
51664;SDS011;37751;52.408;12.536;2023-04-10T08:49:55;23.25;;;17.13;;
51664;SDS011;37751;52.408;12.536;2023-04-10T08:52:25;20.10;;;16.10;;
51664;SDS011;37751;52.408;12.536;2023-04-10T08:55:00;20.33;;;15.98;;
51664;SDS011;37751;52.408;12.536;2023-04-10T08:57:33;19.50;;;14.98;;
51664;SDS011;37751;52.408;12.536;2023-04-10T09:00:06;19.08;;;14.52;;
51664;SDS011;37751;52.408;12.536;2023-04-10T09:02:49;19.98;;;15.35;;
51664;SDS011;37751;52.408;12.536;2023-04-10T09:05:21;22.65;;;16.40;;
51664;SDS011;37751;52.408;12.536;2023-04-10T09:07:53;23.25;;;16.63;;
51664;SDS011;37751;52.408;12.536;2023-04-10T09:10:21;22.70;;;16.33;;
51664;SDS011;37751;52.408;12.536;2023-04-10T09:12:50;20.60;;;16.17;;
51664;SDS011;37751;52.408;12.536;2023-04-10T09:15:18;20.85;;;15.57;;
51664;SDS011;37751;52.408;12.536;2023-04-10T09:17:59;18.45;;;14.80;;
51664;SDS011;37751;52.408;12.536;2023-04-10T09:20:30;15.63;;;12.52;;
51664;SDS011;37751;52.408;12.536;2023-04-10T09:22:58;15.82;;;12.55;;
51664;SDS011;37751;52.408;12.536;2023-04-10T09:25:33;14.38;;;11.85;;
51664;SDS011;37751;52.408;12.536;2023-04-10T09:28:05;18.27;;;12.30;;
51664;SDS011;37751;52.408;12.536;2023-04-10T09:30:36;16.50;;;12.77;;
51664;SDS011;37751;52.408;12.536;2023-04-10T09:35:57;14.68;;;10.70;;
51664;SDS011;37751;52.408;12.536;2023-04-10T09:38:30;12.70;;;9.95;;
51664;SDS011;37751;52.408;12.536;2023-04-10T09:41:07;12.45;;;9.70;;
51664;SDS011;37751;52.408;12.536;2023-04-10T09:43:35;12.68;;;9.82;;
51664;SDS011;37751;52.408;12.536;2023-04-10T09:46:05;12.25;;;8.95;;
51664;SDS011;37751;52.408;12.536;2023-04-10T09:48:33;14.65;;;11.10;;
51664;SDS011;37751;52.408;12.536;2023-04-10T09:51:00;10.40;;;7.95;;
51664;SDS011;37751;52.408;12.536;2023-04-10T09:53:29;11.75;;;8.80;;
51664;SDS011;37751;52.408;12.536;2023-04-10T09:55:57;9.02;;;7.32;;
51664;SDS011;37751;52.408;12.536;2023-04-10T09:58:25;7.88;;;6.45;;
51664;SDS011;37751;52.408;12.536;2023-04-10T10:00:54;11.25;;;8.05;;
51664;SDS011;37751;52.408;12.536;2023-04-10T10:03:22;9.57;;;7.63;;
51664;SDS011;37751;52.408;12.536;2023-04-10T10:05:52;12.10;;;8.30;;
51664;SDS011;37751;52.408;12.536;2023-04-10T10:08:19;10.38;;;8.25;;
51664;SDS011;37751;52.408;12.536;2023-04-10T10:10:49;10.10;;;7.70;;
51664;SDS011;37751;52.408;12.536;2023-04-10T10:13:22;9.55;;;6.88;;
51664;SDS011;37751;52.408;12.536;2023-04-10T10:21:32;9.13;;;7.25;;
51664;SDS011;37751;52.408;12.536;2023-04-10T10:24:02;11.05;;;6.80;;
51664;SDS011;37751;52.408;12.536;2023-04-10T10:26:36;10.98;;;7.50;;
51664;SDS011;37751;52.408;12.536;2023-04-10T10:29:06;10.13;;;7.68;;
51664;SDS011;37751;52.408;12.536;2023-04-10T10:31:40;8.85;;;7.03;;
51664;SDS011;37751;52.408;12.536;2023-04-10T10:34:08;9.73;;;8.20;;
51664;SDS011;37751;52.408;12.536;2023-04-10T10:36:38;13.85;;;9.05;;
51664;SDS011;37751;52.408;12.536;2023-04-10T10:39:17;9.48;;;7.85;;
51664;SDS011;37751;52.408;12.536;2023-04-10T10:47:44;11.90;;;9.50;;
51664;SDS011;37751;52.408;12.536;2023-04-10T10:50:20;10.93;;;9.13;;
51664;SDS011;37751;52.408;12.536;2023-04-10T10:52:51;8.68;;;6.43;;
51664;SDS011;37751;52.408;12.536;2023-04-10T10:57:54;10.82;;;8.45;;
51664;SDS011;37751;52.408;12.536;2023-04-10T11:00:24;12.32;;;8.93;;
51664;SDS011;37751;52.408;12.536;2023-04-10T11:05:47;10.60;;;8.73;;
51664;SDS011;37751;52.408;12.536;2023-04-10T11:08:40;11.63;;;8.77;;
51664;SDS011;37751;52.408;12.536;2023-04-10T11:11:20;9.85;;;8.55;;
51664;SDS011;37751;52.408;12.536;2023-04-10T11:21:32;9.25;;;6.85;;
51664;SDS011;37751;52.408;12.536;2023-04-10T11:24:02;6.10;;;5.15;;
51664;SDS011;37751;52.408;12.536;2023-04-10T11:29:05;6.43;;;5.10;;
51664;SDS011;37751;52.408;12.536;2023-04-10T11:31:45;6.28;;;5.45;;
51664;SDS011;37751;52.408;12.536;2023-04-10T11:34:21;6.00;;;4.72;;
51664;SDS011;37751;52.408;12.536;2023-04-10T11:36:49;6.78;;;5.63;;
51664;SDS011;37751;52.408;12.536;2023-04-10T11:39:19;6.35;;;5.47;;
51664;SDS011;37751;52.408;12.536;2023-04-10T11:41:51;9.35;;;5.80;;
51664;SDS011;37751;52.408;12.536;2023-04-10T11:46:57;12.07;;;6.93;;
51664;SDS011;37751;52.408;12.536;2023-04-10T11:49:31;7.45;;;6.30;;
51664;SDS011;37751;52.408;12.536;2023-04-10T11:52:00;7.55;;;6.28;;
51664;SDS011;37751;52.408;12.536;2023-04-10T11:54:29;7.85;;;5.80;;
51664;SDS011;37751;52.408;12.536;2023-04-10T11:57:04;8.23;;;6.07;;
51664;SDS011;37751;52.408;12.536;2023-04-10T11:59:38;10.15;;;7.13;;
51664;SDS011;37751;52.408;12.536;2023-04-10T12:02:06;7.47;;;6.25;;
51664;SDS011;37751;52.408;12.536;2023-04-10T12:04:42;7.18;;;6.47;;
51664;SDS011;37751;52.408;12.536;2023-04-10T12:07:10;8.80;;;6.00;;
51664;SDS011;37751;52.408;12.536;2023-04-10T12:09:38;7.60;;;6.13;;
51664;SDS011;37751;52.408;12.536;2023-04-10T12:12:06;10.32;;;6.18;;
51664;SDS011;37751;52.408;12.536;2023-04-10T12:14:43;7.47;;;6.00;;
51664;SDS011;37751;52.408;12.536;2023-04-10T12:17:11;6.57;;;4.85;;
51664;SDS011;37751;52.408;12.536;2023-04-10T12:19:39;6.25;;;5.03;;
51664;SDS011;37751;52.408;12.536;2023-04-10T12:22:10;6.70;;;6.00;;
51664;SDS011;37751;52.408;12.536;2023-04-10T12:29:49;7.78;;;5.70;;
51664;SDS011;37751;52.408;12.536;2023-04-10T12:32:19;9.15;;;6.32;;
51664;SDS011;37751;52.408;12.536;2023-04-10T12:34:49;9.82;;;6.10;;
51664;SDS011;37751;52.408;12.536;2023-04-10T12:37:23;6.18;;;5.57;;
51664;SDS011;37751;52.408;12.536;2023-04-10T12:40:12;8.45;;;6.32;;
51664;SDS011;37751;52.408;12.536;2023-04-10T12:42:40;8.20;;;6.45;;
51664;SDS011;37751;52.408;12.536;2023-04-10T12:45:09;7.72;;;6.68;;
51664;SDS011;37751;52.408;12.536;2023-04-10T12:47:46;8.27;;;6.40;;
51664;SDS011;37751;52.408;12.536;2023-04-10T12:50:20;7.47;;;5.90;;
51664;SDS011;37751;52.408;12.536;2023-04-10T12:53:01;8.40;;;6.80;;
51664;SDS011;37751;52.408;12.536;2023-04-10T12:55:35;8.60;;;6.63;;
51664;SDS011;37751;52.408;12.536;2023-04-10T12:58:18;7.55;;;6.72;;
51664;SDS011;37751;52.408;12.536;2023-04-10T13:00:47;8.88;;;7.63;;
51664;SDS011;37751;52.408;12.536;2023-04-10T13:03:15;10.18;;;7.70;;
51664;SDS011;37751;52.408;12.536;2023-04-10T13:05:46;8.07;;;6.97;;
51664;SDS011;37751;52.408;12.536;2023-04-10T13:08:14;8.93;;;6.93;;
51664;SDS011;37751;52.408;12.536;2023-04-10T13:10:46;8.43;;;6.85;;
51664;SDS011;37751;52.408;12.536;2023-04-10T13:13:15;7.60;;;6.28;;
51664;SDS011;37751;52.408;12.536;2023-04-10T13:15:44;9.80;;;6.85;;
51664;SDS011;37751;52.408;12.536;2023-04-10T13:18:11;9.85;;;7.05;;
51664;SDS011;37751;52.408;12.536;2023-04-10T13:20:39;7.53;;;6.30;;
51664;SDS011;37751;52.408;12.536;2023-04-10T13:23:07;12.20;;;6.53;;
51664;SDS011;37751;52.408;12.536;2023-04-10T13:25:36;7.95;;;6.13;;
51664;SDS011;37751;52.408;12.536;2023-04-10T13:28:06;8.27;;;6.35;;
51664;SDS011;37751;52.408;12.536;2023-04-10T13:30:38;8.05;;;6.72;;
51664;SDS011;37751;52.408;12.536;2023-04-10T13:33:08;11.50;;;6.93;;
51664;SDS011;37751;52.408;12.536;2023-04-10T13:35:37;9.93;;;7.10;;
51664;SDS011;37751;52.408;12.536;2023-04-10T13:38:06;8.77;;;6.78;;
51664;SDS011;37751;52.408;12.536;2023-04-10T13:40:35;8.82;;;6.88;;
51664;SDS011;37751;52.408;12.536;2023-04-10T13:43:03;7.50;;;6.40;;
51664;SDS011;37751;52.408;12.536;2023-04-10T13:45:32;8.85;;;7.53;;
51664;SDS011;37751;52.408;12.536;2023-04-10T13:48:00;9.32;;;6.93;;
51664;SDS011;37751;52.408;12.536;2023-04-10T13:50:28;9.60;;;7.15;;
51664;SDS011;37751;52.408;12.536;2023-04-10T13:52:56;10.85;;;7.97;;
51664;SDS011;37751;52.408;12.536;2023-04-10T13:55:24;10.98;;;8.85;;
51664;SDS011;37751;52.408;12.536;2023-04-10T13:57:52;10.63;;;8.65;;
51664;SDS011;37751;52.408;12.536;2023-04-10T14:00:20;9.40;;;7.65;;
51664;SDS011;37751;52.408;12.536;2023-04-10T14:02:48;15.98;;;9.07;;
51664;SDS011;37751;52.408;12.536;2023-04-10T14:05:16;12.10;;;8.65;;
51664;SDS011;37751;52.408;12.536;2023-04-10T14:07:43;11.88;;;8.15;;
51664;SDS011;37751;52.408;12.536;2023-04-10T14:10:11;11.50;;;8.52;;
51664;SDS011;37751;52.408;12.536;2023-04-10T14:12:39;11.00;;;7.90;;
51664;SDS011;37751;52.408;12.536;2023-04-10T14:15:06;12.68;;;8.32;;
51664;SDS011;37751;52.408;12.536;2023-04-10T14:17:35;10.43;;;8.20;;
51664;SDS011;37751;52.408;12.536;2023-04-10T14:20:02;9.85;;;7.43;;
51664;SDS011;37751;52.408;12.536;2023-04-10T14:22:30;8.75;;;7.05;;
51664;SDS011;37751;52.408;12.536;2023-04-10T14:24:58;11.40;;;6.90;;
51664;SDS011;37751;52.408;12.536;2023-04-10T14:27:39;12.07;;;7.15;;
51664;SDS011;37751;52.408;12.536;2023-04-10T14:30:10;7.72;;;6.72;;
51664;SDS011;37751;52.408;12.536;2023-04-10T14:32:38;9.55;;;7.10;;
51664;SDS011;37751;52.408;12.536;2023-04-10T14:35:06;8.25;;;7.30;;
51664;SDS011;37751;52.408;12.536;2023-04-10T14:37:34;7.32;;;6.57;;
51664;SDS011;37751;52.408;12.536;2023-04-10T14:40:02;8.15;;;6.65;;
51664;SDS011;37751;52.408;12.536;2023-04-10T14:42:31;7.43;;;6.22;;
51664;SDS011;37751;52.408;12.536;2023-04-10T14:44:58;10.20;;;7.38;;
51664;SDS011;37751;52.408;12.536;2023-04-10T14:47:26;7.55;;;5.57;;
51664;SDS011;37751;52.408;12.536;2023-04-10T14:49:54;8.00;;;6.05;;
51664;SDS011;37751;52.408;12.536;2023-04-10T14:52:22;6.80;;;5.25;;
51664;SDS011;37751;52.408;12.536;2023-04-10T14:54:50;7.65;;;5.90;;
51664;SDS011;37751;52.408;12.536;2023-04-10T14:57:17;5.45;;;4.65;;
51664;SDS011;37751;52.408;12.536;2023-04-10T14:59:45;8.68;;;5.00;;
51664;SDS011;37751;52.408;12.536;2023-04-10T15:02:12;5.40;;;4.82;;
51664;SDS011;37751;52.408;12.536;2023-04-10T15:04:41;7.10;;;5.35;;
51664;SDS011;37751;52.408;12.536;2023-04-10T15:07:09;4.82;;;4.30;;
51664;SDS011;37751;52.408;12.536;2023-04-10T15:09:36;10.00;;;5.15;;
51664;SDS011;37751;52.408;12.536;2023-04-10T15:12:04;6.90;;;5.13;;
51664;SDS011;37751;52.408;12.536;2023-04-10T15:14:32;10.88;;;5.22;;
51664;SDS011;37751;52.408;12.536;2023-04-10T15:17:00;8.57;;;5.05;;
51664;SDS011;37751;52.408;12.536;2023-04-10T15:19:28;9.05;;;5.10;;
51664;SDS011;37751;52.408;12.536;2023-04-10T15:21:55;8.30;;;6.20;;
51664;SDS011;37751;52.408;12.536;2023-04-10T15:24:23;8.25;;;6.60;;
51664;SDS011;37751;52.408;12.536;2023-04-10T15:26:51;12.05;;;5.95;;
51664;SDS011;37751;52.408;12.536;2023-04-10T15:29:19;7.60;;;6.03;;
51664;SDS011;37751;52.408;12.536;2023-04-10T15:31:47;7.88;;;6.43;;